Time;durP1;ratioP1;P1;durP2;ratioP2;P2;SDS_P1;SDS_P2;PMS_P1;PMS_P2;Temp;Humidity;BMP_temperature;BMP_pressure;BME280_temperature;BME280_humidity;BME280_pressure;Samples;Min_cycle;Max_cycle;Signal;HPM_P1;HPM_P2
2023/08/03 00:00:07;;;;;;;4.30;1.15;;;;;;;18.84;51.30;97955.31;10423076;28;20045;-58
2023/08/03 00:05:17;;;;;;;2.53;0.50;;;;;;;18.73;51.33;97947.91;10421864;28;20049;-58
2023/08/03 00:10:21;;;;;;;2.33;0.28;;;;;;;18.77;51.67;97951.81;10422838;28;20062;-59
2023/08/03 00:15:23;;;;;;;5.72;1.42;;;;;;;18.77;51.85;97943.84;10424144;28;20080;-59
2023/08/03 00:20:25;;;;;;;0.65;0.40;;;;;;;18.59;52.31;97934.53;10423356;28;20457;-59
2023/08/03 00:25:30;;;;;;;1.42;0.47;;;;;;;18.66;52.21;97934.59;10422758;28;20065;-59
2023/08/03 00:30:32;;;;;;;1.92;1.30;;;;;;;18.63;52.37;97929.66;10423597;28;20079;-59
2023/08/03 00:35:34;;;;;;;1.65;0.50;;;;;;;18.55;52.40;97933.28;10424310;28;20114;-58
2023/08/03 00:40:36;;;;;;;2.22;0.82;;;;;;;18.55;52.64;97935.09;10415251;28;20119;-58
2023/08/03 00:45:39;;;;;;;3.47;0.70;;;;;;;18.51;52.60;97942.59;10422687;28;20045;-59
2023/08/03 00:50:41;;;;;;;4.97;1.05;;;;;;;18.49;52.80;97943.78;10416356;28;20076;-59
2023/08/03 00:55:43;;;;;;;0.80;0.40;;;;;;;18.49;53.15;97947.28;10422173;28;20095;-58
2023/08/03 01:00:45;;;;;;;0.63;0.60;;;;;;;18.43;53.14;97937.44;10424045;28;20052;-58
2023/08/03 01:05:47;;;;;;;4.22;1.35;;;;;;;18.36;53.31;97938.41;10421504;28;20037;-58
2023/08/03 01:10:49;;;;;;;0.70;0.70;;;;;;;18.36;53.22;97939.19;10426326;28;20460;-58
2023/08/03 01:15:52;;;;;;;1.40;0.68;;;;;;;18.47;52.72;97943.16;10430447;28;20057;-58
2023/08/03 01:20:55;;;;;;;0.68;0.43;;;;;;;18.32;52.89;97937.13;10430047;28;20384;-58
2023/08/03 01:25:57;;;;;;;1.33;0.60;;;;;;;18.34;52.89;97946.50;10429309;28;20056;-58
2023/08/03 01:31:00;;;;;;;2.45;0.52;;;;;;;18.41;52.75;97950.03;10423383;28;20053;-58
2023/08/03 01:36:03;;;;;;;1.33;0.38;;;;;;;18.44;52.20;97946.22;10429117;28;20127;-58
2023/08/03 01:41:05;;;;;;;2.47;0.70;;;;;;;18.49;52.02;97957.03;10428210;28;20048;-58
2023/08/03 01:46:07;;;;;;;1.65;0.40;;;;;;;18.53;52.16;97950.34;10429356;28;20048;-58
2023/08/03 01:51:09;;;;;;;0.73;0.47;;;;;;;18.43;51.64;97955.16;10428955;28;20220;-58
2023/08/03 01:56:11;;;;;;;2.38;0.47;;;;;;;18.44;52.22;97956.78;10429049;28;20047;-57
2023/08/03 02:01:13;;;;;;;2.47;0.52;;;;;;;18.43;52.02;97955.16;10429583;28;20049;-58
2023/08/03 02:06:15;;;;;;;0.85;0.75;;;;;;;18.45;51.97;97953.13;10437395;28;20072;-58
2023/08/03 02:11:17;;;;;;;0.90;0.50;;;;;;;18.37;52.31;97963.84;10435639;28;20041;-59
2023/08/03 02:16:19;;;;;;;4.68;0.70;;;;;;;18.39;51.93;97938.00;10436509;28;20057;-58
2023/08/03 02:21:26;;;;;;;1.75;0.47;;;;;;;18.27;52.41;97955.38;10436569;28;20057;-58
2023/08/03 02:26:28;;;;;;;1.27;0.40;;;;;;;18.26;52.16;97959.06;10434984;28;20512;-58
2023/08/03 02:31:30;;;;;;;0.38;0.30;;;;;;;18.23;52.22;97962.88;10436201;28;20095;-58
2023/08/03 02:36:32;;;;;;;0.70;0.30;;;;;;;18.19;52.81;97958.13;10436475;28;20040;-57
2023/08/03 02:41:40;;;;;;;1.33;0.60;;;;;;;18.08;52.84;97963.88;10418715;28;20052;-58
2023/08/03 02:46:48;;;;;;;2.17;0.52;;;;;;;17.94;53.26;97984.09;10432993;28;20127;-58
2023/08/03 02:51:50;;;;;;;1.13;0.30;;;;;;;18.09;53.00;97978.78;10434624;28;20053;-58
2023/08/03 02:56:59;;;;;;;1.27;0.40;;;;;;;18.04;53.46;97981.13;10426548;28;20037;-58
2023/08/03 03:02:01;;;;;;;1.65;0.75;;;;;;;17.80;53.79;97993.69;10432979;28;20047;-58
2023/08/03 03:07:08;;;;;;;1.80;0.50;;;;;;;17.88;53.65;98013.91;10411782;28;20122;-58
2023/08/03 03:12:12;;;;;;;2.28;0.20;;;;;;;17.78;54.06;98006.28;10425098;28;20037;-58
2023/08/03 03:17:21;;;;;;;0.65;0.47;;;;;;;17.88;53.60;98000.69;10424849;28;20059;-58
2023/08/03 03:22:25;;;;;;;2.20;0.57;;;;;;;17.84;53.70;98013.47;10425804;28;20420;-58
2023/08/03 03:27:27;;;;;;;0.55;0.25;;;;;;;17.76;54.18;98008.28;10426329;28;20063;-58
2023/08/03 03:32:30;;;;;;;3.08;0.85;;;;;;;17.64;54.46;98004.44;10425295;28;20088;-59
2023/08/03 03:37:32;;;;;;;0.45;0.20;;;;;;;17.69;54.42;98019.75;10410550;28;20055;-58
2023/08/03 03:42:35;;;;;;;1.00;0.45;;;;;;;17.55;54.47;98034.59;10423724;28;20049;-59
2023/08/03 03:47:37;;;;;;;0.47;0.22;;;;;;;17.58;54.58;98028.97;10422516;28;20155;-59
2023/08/03 03:52:40;;;;;;;0.43;0.40;;;;;;;17.53;54.40;98019.94;10425332;28;20045;-59
2023/08/03 03:57:43;;;;;;;0.73;0.38;;;;;;;17.59;54.15;98025.31;10425333;28;20468;-59
2023/08/03 04:02:47;;;;;;;3.92;0.80;;;;;;;17.64;54.02;98027.41;10424808;28;20045;-58
2023/08/03 04:07:53;;;;;;;0.77;0.40;;;;;;;17.64;54.20;98033.53;10410629;28;20052;-58
2023/08/03 04:12:56;;;;;;;0.77;0.32;;;;;;;17.69;54.16;98051.47;10423384;28;20180;-59
2023/08/03 04:17:59;;;;;;;0.20;0.20;;;;;;;17.64;53.99;98054.69;10415505;28;20048;-58
2023/08/03 04:23:05;;;;;;;6.47;0.50;;;;;;;17.64;54.18;98049.41;10421992;28;20503;-59
2023/08/03 04:28:07;;;;;;;1.27;0.63;;;;;;;17.65;53.96;98048.38;10441077;28;20052;-58
2023/08/03 04:33:12;;;;;;;1.13;0.60;;;;;;;17.64;54.10;98059.13;10423558;28;20304;-58
2023/08/03 04:38:15;;;;;;;0.95;0.45;;;;;;;17.75;53.82;98040.19;10425061;28;20048;-58
2023/08/03 04:43:23;;;;;;;0.63;0.38;;;;;;;17.54;55.20;98074.44;10424607;28;20084;-59
2023/08/03 04:48:25;;;;;;;2.80;0.50;;;;;;;17.44;55.87;98095.84;10432892;28;20103;-58
2023/08/03 04:53:29;;;;;;;0.70;0.40;;;;;;;17.12;56.83;98103.19;10431716;28;20505;-58
2023/08/03 04:58:32;;;;;;;0.70;0.60;;;;;;;17.15;56.78;98129.25;10431503;28;20484;-58
2023/08/03 05:03:34;;;;;;;2.00;0.40;;;;;;;17.08;57.18;98121.19;10431407;28;20099;-58
2023/08/03 05:08:38;;;;;;;1.60;0.50;;;;;;;17.01;57.09;98125.56;10428092;28;20048;-59
2023/08/03 05:13:40;;;;;;;3.15;1.33;;;;;;;17.07;57.22;98130.13;10427370;28;20068;-58
2023/08/03 05:18:42;;;;;;;1.88;0.60;;;;;;;17.10;57.26;98156.19;10429591;28;20045;-58
2023/08/03 05:23:45;;;;;;;0.77;0.22;;;;;;;17.11;57.22;98149.91;10432897;28;20041;-59
2023/08/03 05:28:47;;;;;;;0.57;0.32;;;;;;;17.09;57.34;98173.03;10417062;28;20433;-59
2023/08/03 05:33:50;;;;;;;1.95;0.55;;;;;;;17.18;57.12;98171.16;10419764;28;20064;-59
2023/08/03 05:38:55;;;;;;;0.32;0.30;;;;;;;17.22;56.74;98177.75;10428403;28;20532;-58
2023/08/03 05:43:57;;;;;;;0.52;0.25;;;;;;;17.31;56.68;98179.31;10420513;28;20068;-61
2023/08/03 05:48:59;;;;;;;0.43;0.20;;;;;;;17.28;56.64;98191.06;10420627;28;20132;-61
2023/08/03 05:54:02;;;;;;;3.85;0.57;;;;;;;17.28;56.42;98198.97;10425005;28;20211;-61
2023/08/03 05:59:04;;;;;;;0.20;0.20;;;;;;;17.40;56.16;98205.56;10409000;28;20053;-61
2023/08/03 06:04:10;;;;;;;0.55;0.28;;;;;;;17.43;56.14;98207.84;10426300;28;20053;-61
2023/08/03 06:09:14;;;;;;;0.45;0.30;;;;;;;17.48;56.09;98220.53;10428442;28;20178;-61
2023/08/03 06:14:17;;;;;;;0.10;0.10;;;;;;;17.61;55.85;98218.09;10422994;28;20134;-62
2023/08/03 06:19:19;;;;;;;0.20;0.20;;;;;;;17.46;55.71;98226.00;10424264;28;20932;-61
2023/08/03 06:24:22;;;;;;;0.85;0.25;;;;;;;17.37;55.92;98213.81;10418700;28;20504;-61
2023/08/03 06:29:24;;;;;;;1.02;0.30;;;;;;;17.44;55.60;98221.88;10421358;28;20131;-61
2023/08/03 06:34:26;;;;;;;1.48;0.70;;;;;;;17.44;55.60;98243.84;10424375;28;20056;-61
2023/08/03 06:39:29;;;;;;;0.75;0.30;;;;;;;17.50;55.65;98231.75;10421213;28;20045;-61
2023/08/03 06:44:31;;;;;;;0.65;0.40;;;;;;;17.62;55.35;98249.66;10409708;28;20658;-61
2023/08/03 06:49:35;;;;;;;0.30;0.30;;;;;;;17.66;54.87;98253.59;10427832;28;20247;-61
2023/08/03 06:54:37;;;;;;;0.85;0.25;;;;;;;17.75;54.97;98255.16;10426100;28;20183;-61
2023/08/03 06:59:39;;;;;;;0.22;0.22;;;;;;;18.09;54.51;98265.31;10410086;28;20696;-61
2023/08/03 07:04:41;;;;;;;0.20;0.20;;;;;;;18.13;53.67;98276.34;10424541;28;20663;-61
2023/08/03 07:09:49;;;;;;;0.52;0.30;;;;;;;18.16;53.71;98275.97;10425729;28;20448;-61
2023/08/03 07:14:51;;;;;;;0.17;0.17;;;;;;;18.54;53.49;98269.69;10421983;28;20567;-61
2023/08/03 07:19:54;;;;;;;0.20;0.20;;;;;;;18.58;53.05;98285.00;10424879;28;20477;-61
2023/08/03 07:24:56;;;;;;;0.30;0.20;;;;;;;18.52;53.17;98293.69;10422215;28;20052;-61
2023/08/03 07:29:59;;;;;;;1.02;0.10;;;;;;;18.89;52.02;98295.44;10423279;28;20378;-62
2023/08/03 07:35:02;;;;;;;0.13;0.13;;;;;;;18.90;52.52;98306.84;10417097;28;20064;-61
2023/08/03 07:40:07;;;;;;;0.35;0.10;;;;;;;18.90;52.38;98312.97;10407164;28;20060;-61
2023/08/03 07:45:09;;;;;;;0.03;0.03;;;;;;;19.10;52.06;98306.13;10418891;28;20489;-61
2023/08/03 07:50:11;;;;;;;0.10;0.10;;;;;;;19.94;50.88;98308.13;10414841;28;20470;-61
2023/08/03 07:55:13;;;;;;;0.15;0.15;;;;;;;20.12;50.27;98310.31;10421686;28;20143;-61
2023/08/03 08:00:15;;;;;;;0.47;0.30;;;;;;;20.73;49.46;98303.44;10418450;28;20049;-61
2023/08/03 08:05:17;;;;;;;0.45;0.30;;;;;;;20.54;48.88;98320.88;10418261;28;20055;-61
2023/08/03 08:10:20;;;;;;;0.10;0.10;;;;;;;20.27;49.18;98327.00;10416244;28;20053;-61
2023/08/03 08:15:21;;;;;;;0.10;0.10;;;;;;;20.38;49.29;98315.03;10419972;28;20091;-61
2023/08/03 08:20:24;;;;;;;0.20;0.20;;;;;;;20.37;48.43;98340.78;10411746;28;20481;-61
2023/08/03 08:25:26;;;;;;;0.10;0.10;;;;;;;20.38;48.85;98341.59;10418891;28;20071;-59
2023/08/03 08:30:29;;;;;;;0.20;0.20;;;;;;;20.82;48.30;98334.19;10448192;28;20055;-60
2023/08/03 08:35:31;;;;;;;0.20;0.15;;;;;;;20.83;48.08;98346.44;10419254;28;20238;-60
2023/08/03 08:40:37;;;;;;;0.20;0.20;;;;;;;21.11;46.81;98335.78;10411127;28;20080;-61
2023/08/03 08:45:39;;;;;;;0.22;0.22;;;;;;;21.74;46.57;98356.72;10421079;28;20468;-60
2023/08/03 08:50:42;;;;;;;0.85;0.30;;;;;;;22.16;44.85;98366.25;10416119;28;20053;-61
2023/08/03 08:55:50;;;;;;;0.20;0.20;;;;;;;22.00;44.79;98362.13;10417134;28;20814;-61
2023/08/03 09:01:03;;;;;;;0.85;0.30;;;;;;;21.88;44.98;98364.53;10411806;28;20444;-60
2023/08/03 09:06:05;;;;;;;0.63;0.43;;;;;;;22.13;45.29;98364.03;10413094;28;20045;-60
2023/08/03 09:11:10;;;;;;;0.25;0.20;;;;;;;21.90;45.88;98381.13;10411400;28;20033;-60
2023/08/03 09:16:24;;;;;;;0.28;0.28;;;;;;;21.47;45.01;98376.28;10414426;28;20045;-60
2023/08/03 09:21:26;;;;;;;0.10;0.10;;;;;;;21.71;45.91;98392.53;10412894;28;20098;-60
2023/08/03 09:26:31;;;;;;;0.20;0.20;;;;;;;21.98;45.53;98393.44;10414961;28;20045;-60
2023/08/03 09:31:36;;;;;;;0.20;0.20;;;;;;;22.17;44.92;98399.88;10421036;28;20041;-61
2023/08/03 09:36:55;;;;;;;0.10;0.10;;;;;;;22.81;44.54;98397.47;10424616;28;20045;-60
2023/08/03 09:42:05;;;;;;;0.17;0.17;;;;;;;23.39;41.93;98396.53;10421648;28;20040;-60
2023/08/03 09:47:07;;;;;;;0.10;0.10;;;;;;;22.95;43.85;98410.56;10427440;28;20152;-61
2023/08/03 09:52:14;;;;;;;0.20;0.20;;;;;;;23.07;42.73;98418.75;10420127;28;20045;-61
2023/08/03 10:01:46;;;;;;;0.20;0.20;;;;;;;22.56;44.13;98419.38;10544812;27;20427;-61
2023/08/03 10:06:53;;;;;;;0.50;0.43;;;;;;;23.04;42.93;98427.19;10537005;28;20036;-61
2023/08/03 10:11:59;;;;;;;0.20;0.20;;;;;;;22.92;43.03;98434.19;10529260;28;20065;-62
2023/08/03 10:17:04;;;;;;;0.20;0.20;;;;;;;22.46;44.14;98453.59;10537372;28;20184;-62
2023/08/03 10:22:08;;;;;;;0.20;0.20;;;;;;;22.28;44.23;98447.19;10511495;28;20208;-62
2023/08/03 10:27:17;;;;;;;1.02;0.57;;;;;;;22.48;43.52;98454.22;10541481;28;20044;-61
2023/08/03 10:32:28;;;;;;;0.38;0.13;;;;;;;21.92;44.26;98464.25;10528220;28;20043;-59
2023/08/03 10:37:30;;;;;;;0.22;0.22;;;;;;;22.61;43.98;98456.06;10540842;28;20120;-61
2023/08/03 10:42:34;;;;;;;0.43;0.25;;;;;;;23.10;42.58;98456.53;10534733;28;20070;-61
2023/08/03 10:47:37;;;;;;;0.30;0.30;;;;;;;23.49;42.97;98456.47;10522370;28;20656;-61
2023/08/03 10:52:39;;;;;;;0.20;0.20;;;;;;;23.44;43.01;98455.44;10530314;28;20044;-61
2023/08/03 10:57:43;;;;;;;0.30;0.30;;;;;;;22.92;43.33;98474.16;10537674;28;20055;-61
2023/08/03 11:02:45;;;;;;;0.22;0.22;;;;;;;23.25;42.87;98469.59;10532662;28;20044;-61
2023/08/03 11:07:48;;;;;;;0.30;0.30;;;;;;;23.30;42.83;98475.16;10536730;28;20412;-62
2023/08/03 11:12:52;;;;;;;0.30;0.25;;;;;;;23.40;42.83;98473.75;10505760;28;20318;-61
2023/08/03 11:17:56;;;;;;;0.28;0.22;;;;;;;23.10;43.11;98488.53;10513303;28;20050;-61
2023/08/03 11:22:58;;;;;;;0.20;0.20;;;;;;;22.87;43.46;98489.94;10505794;28;20044;-61
2023/08/03 11:28:00;;;;;;;0.30;0.30;;;;;;;23.12;42.80;98488.31;10512119;28;20051;-61
2023/08/03 11:33:02;;;;;;;0.30;0.30;;;;;;;23.27;42.84;98508.41;10488159;28;20102;-61
2023/08/03 11:38:08;;;;;;;0.95;0.30;;;;;;;23.55;42.47;98500.19;10510227;28;20043;-61
2023/08/03 11:43:10;;;;;;;0.25;0.25;;;;;;;23.88;42.17;98508.09;10507272;28;20050;-61
2023/08/03 11:48:12;;;;;;;0.30;0.30;;;;;;;23.27;42.79;98523.56;10507537;28;20526;-61
2023/08/03 11:53:24;;;;;;;0.75;0.35;;;;;;;23.16;43.33;98526.88;10509067;28;20127;-61
2023/08/03 11:58:27;;;;;;;0.20;0.20;;;;;;;23.07;43.03;98536.09;10503257;28;20204;-60
2023/08/03 12:03:34;;;;;;;0.20;0.20;;;;;;;22.86;43.92;98534.44;10487450;28;20047;-61
2023/08/03 12:08:43;;;;;;;0.20;0.20;;;;;;;22.59;44.43;98538.88;10498843;28;20040;-61
2023/08/03 12:13:46;;;;;;;0.30;0.30;;;;;;;22.40;44.87;98547.63;10506187;28;20495;-61
2023/08/03 12:18:48;;;;;;;0.30;0.30;;;;;;;22.43;44.80;98549.88;10496497;28;20154;-61
2023/08/03 12:23:51;;;;;;;0.32;0.32;;;;;;;22.40;45.48;98554.81;10507252;28;20044;-61
2023/08/03 12:28:53;;;;;;;0.43;0.43;;;;;;;22.71;45.04;98563.09;10500502;28;20561;-61
2023/08/03 12:33:56;;;;;;;0.40;0.40;;;;;;;22.46;45.52;98564.66;10488910;28;20048;-60
2023/08/03 12:38:58;;;;;;;0.43;0.28;;;;;;;21.97;46.01;98587.97;10496618;28;20396;-60
2023/08/03 12:44:00;;;;;;;0.30;0.30;;;;;;;21.72;47.30;98583.09;10501969;28;20511;-60
2023/08/03 12:49:03;;;;;;;0.50;0.30;;;;;;;22.30;46.18;98586.31;10502527;28;20056;-60
2023/08/03 12:54:05;;;;;;;0.43;0.43;;;;;;;22.20;46.02;98585.88;10506337;28;20751;-60
2023/08/03 12:59:07;;;;;;;2.30;0.43;;;;;;;22.47;45.70;98587.63;10500363;28;20466;-60
2023/08/03 13:04:10;;;;;;;0.20;0.20;;;;;;;22.62;45.53;98594.44;10500372;28;20515;-60
2023/08/03 13:09:12;;;;;;;0.80;0.35;;;;;;;22.41;46.22;98610.53;10495580;28;20048;-60
2023/08/03 13:14:14;;;;;;;0.30;0.30;;;;;;;21.92;48.60;98629.28;10500622;28;20239;-60
2023/08/03 13:19:16;;;;;;;0.57;0.40;;;;;;;21.72;50.13;98620.38;10497515;28;20050;-61
2023/08/03 13:24:20;;;;;;;0.20;0.20;;;;;;;21.94;50.08;98626.47;10495223;28;20423;-60
2023/08/03 13:29:22;;;;;;;0.80;0.47;;;;;;;21.63;51.53;98629.53;10494897;28;20119;-60
2023/08/03 13:34:25;;;;;;;0.98;0.30;;;;;;;21.41;52.09;98637.72;10502021;28;20419;-61
2023/08/03 13:39:27;;;;;;;1.33;0.20;;;;;;;22.36;50.36;98633.47;10493538;28;20062;-62
2023/08/03 13:44:29;;;;;;;0.22;0.22;;;;;;;22.32;50.15;98657.03;10451811;28;20374;-61
2023/08/03 13:49:32;;;;;;;0.47;0.47;;;;;;;22.39;49.55;98655.19;10497037;28;20044;-61
2023/08/03 13:54:34;;;;;;;0.17;0.10;;;;;;;22.18;49.24;98655.31;10500204;28;20047;-61
2023/08/03 13:59:36;;;;;;;0.63;0.50;;;;;;;21.95;48.84;98659.22;10496630;28;20453;-61
2023/08/03 14:04:39;;;;;;;0.98;0.30;;;;;;;22.28;48.76;98668.25;10505920;28;20040;-61
2023/08/03 14:09:43;;;;;;;0.40;0.40;;;;;;;21.70;50.33;98680.13;10494505;28;20044;-61
2023/08/03 14:14:45;;;;;;;0.40;0.40;;;;;;;21.35;51.46;98697.84;10504530;28;20032;-62
2023/08/03 14:19:47;;;;;;;0.40;0.40;;;;;;;21.41;50.99;98713.03;10495736;28;20480;-62
2023/08/03 14:24:49;;;;;;;0.55;0.35;;;;;;;21.26;51.65;98708.72;10501857;28;20302;-62
2023/08/03 14:29:54;;;;;;;0.30;0.30;;;;;;;21.27;51.38;98713.03;10495898;28;20032;-62
2023/08/03 14:34:56;;;;;;;0.30;0.30;;;;;;;21.30;51.98;98717.97;10487315;28;21127;-62
2023/08/03 14:40:01;;;;;;;0.80;0.35;;;;;;;21.13;53.09;98703.28;10497646;28;20048;-62
2023/08/03 14:45:04;;;;;;;0.20;0.20;;;;;;;21.05;53.44;98707.69;10503364;28;20158;-61
2023/08/03 14:50:07;;;;;;;0.20;0.20;;;;;;;20.91;53.80;98724.50;10502789;28;20380;-61
2023/08/03 14:55:11;;;;;;;0.30;0.30;;;;;;;20.95;53.23;98720.47;10507737;28;20169;-61
2023/08/03 15:00:14;;;;;;;0.57;0.50;;;;;;;20.94;53.37;98731.28;10502245;28;20591;-61
2023/08/03 15:05:16;;;;;;;0.45;0.38;;;;;;;20.73;53.94;98749.81;10513915;28;20495;-61
2023/08/03 15:10:18;;;;;;;0.30;0.30;;;;;;;20.61;53.82;98736.19;10499696;28;20071;-61
2023/08/03 15:15:20;;;;;;;0.25;0.25;;;;;;;20.84;53.61;98746.69;10506243;28;20044;-61
2023/08/03 15:20:32;;;;;;;0.32;0.32;;;;;;;20.96;52.99;98754.03;10501953;28;20069;-61
2023/08/03 15:25:38;;;;;;;0.30;0.30;;;;;;;20.76;53.23;98744.97;10508603;28;20048;-61
2023/08/03 15:30:50;;;;;;;0.28;0.28;;;;;;;20.71;53.49;98757.97;10496922;28;20472;-61
2023/08/03 15:35:59;;;;;;;0.38;0.38;;;;;;;20.67;53.44;98755.88;10508409;28;20035;-61
2023/08/03 15:41:04;;;;;;;0.32;0.32;;;;;;;20.65;53.09;98753.41;10495390;28;20180;-61
2023/08/03 15:46:07;;;;;;;0.50;0.50;;;;;;;20.86;52.86;98756.16;10503668;28;20051;-61
2023/08/03 15:51:19;;;;;;;6.88;0.93;;;;;;;20.96;52.93;98767.31;10501868;28;20403;-62
2023/08/03 15:56:28;;;;;;;0.50;0.50;;;;;;;20.73;52.80;98774.56;10501584;28;20047;-61
2023/08/03 16:01:31;;;;;;;0.68;0.63;;;;;;;20.70;53.18;98790.84;10475082;28;20135;-62
2023/08/03 16:06:33;;;;;;;0.38;0.28;;;;;;;20.77;52.89;98782.97;10511021;28;20246;-61
2023/08/03 16:11:35;;;;;;;1.20;0.50;;;;;;;20.67;53.22;98788.59;10502773;28;20047;-61
2023/08/03 16:16:55;;;;;;;0.50;0.50;;;;;;;20.88;53.46;98788.69;10511590;28;20515;-62
2023/08/03 16:21:57;;;;;;;0.85;0.40;;;;;;;20.91;53.40;98788.28;10500026;28;20047;-61
2023/08/03 16:26:59;;;;;;;0.30;0.30;;;;;;;20.93;53.20;98790.75;10484611;28;20075;-61
2023/08/03 16:32:04;;;;;;;1.55;0.80;;;;;;;20.88;53.06;98817.06;10497328;28;20044;-62
2023/08/03 16:37:11;;;;;;;2.00;0.80;;;;;;;20.97;53.06;98814.13;10505135;28;20373;-62
2023/08/03 16:42:14;;;;;;;0.52;0.40;;;;;;;20.96;53.13;98836.41;10495192;28;20050;-62
2023/08/03 16:47:17;;;;;;;0.50;0.50;;;;;;;20.51;53.72;98841.84;10501487;28;20500;-62
2023/08/03 16:52:19;;;;;;;1.85;0.47;;;;;;;20.44;53.46;98859.50;10497879;28;20446;-61
2023/08/03 16:57:21;;;;;;;0.68;0.50;;;;;;;20.47;53.44;98856.50;10504866;28;20496;-62
2023/08/03 17:02:23;;;;;;;0.63;0.60;;;;;;;20.58;53.09;98857.94;10496292;28;20060;-61
2023/08/03 17:07:25;;;;;;;1.75;0.60;;;;;;;20.57;52.87;98857.06;10501653;28;20556;-61
2023/08/03 17:12:27;;;;;;;0.65;0.60;;;;;;;20.51;52.91;98873.72;10500173;28;20154;-62
2023/08/03 17:17:29;;;;;;;0.57;0.43;;;;;;;20.57;52.82;98880.13;10498987;28;20031;-61
2023/08/03 17:22:32;;;;;;;0.70;0.50;;;;;;;20.43;53.32;98891.56;10504125;28;20058;-61
2023/08/03 17:27:36;;;;;;;0.47;0.47;;;;;;;20.37;53.58;98901.06;10503219;28;20036;-61
2023/08/03 17:32:40;;;;;;;1.25;0.52;;;;;;;20.18;53.87;98920.13;10504373;28;21465;-60
2023/08/03 17:37:42;;;;;;;1.48;1.13;;;;;;;20.08;54.20;98924.84;10486403;28;20614;-60
2023/08/03 17:42:44;;;;;;;1.20;0.85;;;;;;;19.98;54.16;98934.88;10505367;28;20148;-60
2023/08/03 17:47:46;;;;;;;0.85;0.82;;;;;;;19.89;54.42;98946.50;10500513;28;20044;-61
2023/08/03 17:52:49;;;;;;;1.17;0.80;;;;;;;19.75;56.08;98957.84;10500498;28;20164;-61
2023/08/03 17:57:51;;;;;;;0.93;0.68;;;;;;;19.34;56.77;98965.97;10503863;28;20054;-61
2023/08/03 18:02:53;;;;;;;2.85;1.50;;;;;;;18.90;57.96;98971.81;10500049;28;20048;-61
2023/08/03 18:07:55;;;;;;;2.92;1.48;;;;;;;18.57;59.88;98984.25;10481015;28;20048;-62
2023/08/03 18:12:57;;;;;;;5.15;1.52;;;;;;;18.49;59.96;98971.84;10499051;28;20488;-61
2023/08/03 18:17:59;;;;;;;1.63;0.77;;;;;;;18.41;60.39;98974.47;10501845;28;20105;-60
2023/08/03 18:23:04;;;;;;;0.88;0.70;;;;;;;18.20;60.98;98981.25;10512419;28;20043;-62
2023/08/03 18:28:06;;;;;;;1.23;0.80;;;;;;;18.13;61.93;98983.69;10511563;28;20043;-61
2023/08/03 18:33:09;;;;;;;9.02;3.30;;;;;;;18.01;62.64;98994.72;10490037;28;20135;-61
2023/08/03 18:38:11;;;;;;;3.92;1.75;;;;;;;17.97;62.91;98990.75;10509877;28;20043;-61
2023/08/03 18:43:13;;;;;;;1.83;1.00;;;;;;;18.14;63.13;98987.13;10514311;28;20113;-61
2023/08/03 18:48:15;;;;;;;0.70;0.70;;;;;;;18.22;63.43;98989.84;10512911;28;20851;-61
2023/08/03 18:53:17;;;;;;;0.98;0.70;;;;;;;18.15;63.77;99002.88;10512805;28;20459;-61
2023/08/03 18:58:19;;;;;;;0.55;0.55;;;;;;;18.10;63.91;98999.03;10510440;28;20664;-61
2023/08/03 19:03:22;;;;;;;1.75;0.60;;;;;;;18.09;63.77;99010.63;10511876;28;20514;-61
2023/08/03 19:08:24;;;;;;;0.68;0.55;;;;;;;17.93;63.67;99031.72;10513050;28;20051;-61
2023/08/03 19:13:28;;;;;;;2.28;0.80;;;;;;;17.88;64.26;99040.13;10508032;28;20854;-61
2023/08/03 19:18:30;;;;;;;1.13;0.80;;;;;;;17.89;64.42;99059.50;10509715;28;20520;-61
2023/08/03 19:23:32;;;;;;;1.05;0.75;;;;;;;17.82;64.52;99067.22;10508972;28;20393;-61
2023/08/03 19:28:35;;;;;;;1.85;0.50;;;;;;;17.67;64.88;99088.13;10517039;28;20220;-59
2023/08/03 19:33:37;;;;;;;0.95;0.50;;;;;;;17.47;65.24;99091.16;10513952;28;20051;-58
2023/08/03 19:38:39;;;;;;;1.58;0.77;;;;;;;17.56;65.52;99093.72;10513978;28;20051;-58
2023/08/03 19:43:41;;;;;;;2.30;0.47;;;;;;;17.54;64.86;99100.13;10513123;28;20211;-58
2023/08/03 19:48:43;;;;;;;0.75;0.65;;;;;;;17.53;65.28;99096.66;10494791;28;20428;-58
2023/08/03 19:53:46;;;;;;;0.88;0.30;;;;;;;17.47;65.35;99101.72;10520329;28;20040;-58
2023/08/03 19:58:48;;;;;;;1.15;0.90;;;;;;;17.34;65.35;99114.53;10485566;28;20249;-58
2023/08/03 20:03:53;;;;;;;0.80;0.68;;;;;;;17.34;65.81;99118.00;10505626;28;20421;-58
2023/08/03 20:08:58;;;;;;;0.50;0.50;;;;;;;17.32;65.56;99114.66;10487975;28;20097;-58
2023/08/03 20:14:00;;;;;;;0.57;0.57;;;;;;;17.31;65.69;99134.13;10508158;28;20518;-58
2023/08/03 20:19:02;;;;;;;0.55;0.43;;;;;;;17.18;65.66;99144.25;10488335;28;20048;-58
2023/08/03 20:24:11;;;;;;;0.57;0.57;;;;;;;17.14;65.59;99148.19;10510139;28;20044;-58
2023/08/03 20:29:13;;;;;;;0.50;0.50;;;;;;;16.89;66.28;99144.50;10507548;28;20155;-58
2023/08/03 20:34:21;;;;;;;1.13;0.60;;;;;;;16.83;66.77;99149.56;10509130;28;20616;-59
2023/08/03 20:39:23;;;;;;;0.85;0.80;;;;;;;16.75;66.94;99160.03;10524063;28;20160;-59
2023/08/03 20:44:36;;;;;;;1.02;0.60;;;;;;;16.74;66.93;99156.56;10508007;28;20543;-59
2023/08/03 20:49:41;;;;;;;1.02;0.80;;;;;;;16.84;66.80;99164.41;10505209;28;20051;-59
2023/08/03 20:54:43;;;;;;;0.75;0.70;;;;;;;16.94;66.53;99165.16;10506200;28;20032;-58
2023/08/03 20:59:45;;;;;;;0.80;0.60;;;;;;;16.95;66.33;99166.84;10500385;28;20068;-59
2023/08/03 21:04:48;;;;;;;1.48;0.57;;;;;;;16.97;66.43;99167.53;10507283;28;20174;-59
2023/08/03 21:09:51;;;;;;;1.30;0.60;;;;;;;16.74;66.93;99169.75;10505127;28;20032;-58
2023/08/03 21:14:56;;;;;;;1.02;0.90;;;;;;;16.64;67.23;99189.28;10506967;28;20646;-58
2023/08/03 21:19:59;;;;;;;0.47;0.47;;;;;;;16.54;67.32;99184.06;10507035;28;20993;-58
2023/08/03 21:25:01;;;;;;;0.68;0.68;;;;;;;16.48;67.87;99182.00;10488141;28;20054;-59
2023/08/03 21:30:04;;;;;;;1.17;0.82;;;;;;;16.67;67.52;99183.72;10506333;28;20135;-58
2023/08/03 21:35:12;;;;;;;0.80;0.60;;;;;;;16.73;67.23;99186.56;10505489;28;20068;-59
2023/08/03 21:40:14;;;;;;;0.82;0.70;;;;;;;16.62;67.57;99197.34;10507587;28;20063;-59
2023/08/03 21:45:16;;;;;;;2.42;0.88;;;;;;;16.63;67.43;99188.44;10505315;28;20515;-59
2023/08/03 21:50:18;;;;;;;0.90;0.63;;;;;;;16.67;67.50;99200.38;10504849;28;20048;-57
2023/08/03 21:55:20;;;;;;;0.65;0.55;;;;;;;16.75;67.29;99200.44;10521349;28;20146;-58
2023/08/03 22:00:26;;;;;;;0.50;0.50;;;;;;;16.69;67.45;99192.31;10505288;28;20152;-58
2023/08/03 22:05:29;;;;;;;0.57;0.57;;;;;;;16.80;67.57;99202.66;10502881;28;20044;-57
2023/08/03 22:10:31;;;;;;;2.72;0.82;;;;;;;16.83;67.28;99202.38;10499493;28;20125;-57
2023/08/03 22:15:33;;;;;;;0.60;0.60;;;;;;;16.79;67.58;99209.75;10484178;28;20811;-58
2023/08/03 22:20:35;;;;;;;0.60;0.60;;;;;;;16.75;67.64;99207.56;10503910;28;20481;-59
2023/08/03 22:25:37;;;;;;;0.60;0.60;;;;;;;16.69;67.96;99208.97;10503183;28;20411;-59
2023/08/03 22:30:40;;;;;;;1.05;0.68;;;;;;;16.67;67.82;99210.13;10503242;28;20058;-59
2023/08/03 22:35:42;;;;;;;1.17;0.80;;;;;;;16.70;68.17;99210.66;10496544;28;20037;-58
2023/08/03 22:40:44;;;;;;;0.95;0.55;;;;;;;16.75;67.85;99218.13;10503917;28;20044;-58
2023/08/03 22:45:46;;;;;;;1.20;0.75;;;;;;;16.82;67.78;99222.66;10505835;28;20321;-58
2023/08/03 22:50:48;;;;;;;0.70;0.70;;;;;;;16.89;67.79;99225.53;10505364;28;20046;-58
2023/08/03 22:56:04;;;;;;;0.88;0.73;;;;;;;16.83;68.49;99236.69;10482039;28;20579;-58
2023/08/03 23:01:16;;;;;;;0.77;0.68;;;;;;;16.79;68.17;99233.50;10493501;28;20052;-58
2023/08/03 23:06:20;;;;;;;0.63;0.63;;;;;;;16.83;67.63;99226.94;10506726;28;20044;-59
2023/08/03 23:11:22;;;;;;;1.58;0.70;;;;;;;16.72;67.97;99236.91;10514158;28;20036;-59
2023/08/03 23:16:24;;;;;;;0.68;0.65;;;;;;;16.77;67.62;99232.81;10512902;28;20047;-58
2023/08/03 23:21:27;;;;;;;0.70;0.68;;;;;;;16.75;67.79;99239.25;10511259;28;20482;-58
2023/08/03 23:26:29;;;;;;;1.67;1.00;;;;;;;16.77;67.65;99242.56;10511019;28;20059;-59
2023/08/03 23:31:31;;;;;;;1.55;1.00;;;;;;;16.66;67.74;99240.13;10511568;28;20042;-58